createdAt,value
2023-12-23T00:01:13.428Z,0.70
2023-12-23T00:03:40.490Z,0.60
2023-12-23T00:06:07.603Z,0.70
2023-12-23T00:08:34.608Z,0.80
2023-12-23T00:11:01.580Z,0.60
2023-12-23T00:13:28.656Z,0.60
2023-12-23T00:15:55.485Z,0.70
2023-12-23T00:18:22.560Z,0.90
2023-12-23T00:20:49.627Z,0.80
2023-12-23T00:23:16.686Z,0.60
2023-12-23T00:25:43.606Z,0.60
2023-12-23T00:28:10.463Z,0.70
2023-12-23T00:30:37.488Z,0.70
2023-12-23T00:33:06.514Z,0.60
2023-12-23T00:35:33.633Z,0.70
2023-12-23T00:38:00.530Z,0.80
2023-12-23T00:40:27.813Z,0.70
2023-12-23T00:42:54.716Z,0.70
2023-12-23T00:45:21.585Z,0.80
2023-12-23T00:47:48.584Z,0.50
2023-12-23T00:50:15.852Z,0.60
2023-12-23T00:52:43.060Z,0.50
2023-12-23T00:55:09.991Z,0.70
2023-12-23T00:57:36.853Z,0.40
2023-12-23T01:00:03.746Z,0.60
2023-12-23T01:02:30.505Z,0.60
2023-12-23T01:04:57.441Z,0.60
2023-12-23T01:07:24.294Z,0.70
2023-12-23T01:09:51.331Z,0.60
2023-12-23T01:12:18.286Z,0.50
2023-12-23T01:14:45.058Z,0.60
2023-12-23T01:17:11.995Z,0.70
2023-12-23T01:19:38.824Z,0.60
2023-12-23T01:22:05.629Z,0.80
2023-12-23T01:24:32.488Z,0.60
2023-12-23T01:26:59.344Z,0.60
2023-12-23T01:29:26.226Z,0.60
2023-12-23T01:31:53.161Z,0.60
2023-12-23T01:34:20.210Z,0.50
2023-12-23T01:36:47.180Z,0.50
2023-12-23T01:39:14.064Z,0.70
2023-12-23T01:41:40.923Z,0.50
2023-12-23T01:44:08.118Z,0.60
2023-12-23T01:46:35.426Z,0.80
2023-12-23T01:49:02.995Z,0.40
2023-12-23T01:51:30.761Z,0.70
2023-12-23T01:54:04.729Z,0.50
2023-12-23T01:56:33.344Z,0.50
2023-12-23T01:59:04.413Z,0.50
2023-12-23T02:01:33.346Z,0.40
2023-12-23T02:04:00.226Z,0.40
2023-12-23T02:06:27.704Z,0.60
2023-12-23T02:08:54.817Z,0.60
2023-12-23T02:11:48.894Z,0.60
2023-12-23T02:14:37.065Z,0.50
2023-12-23T02:17:04.105Z,0.60
2023-12-23T02:19:31.024Z,0.60
2023-12-23T02:21:57.970Z,0.60
2023-12-23T02:24:24.994Z,0.70
2023-12-23T02:26:59.954Z,0.60
2023-12-23T02:29:28.218Z,0.70
2023-12-23T02:31:56.533Z,0.60
2023-12-23T02:34:23.565Z,0.70
2023-12-23T02:36:50.560Z,0.50
2023-12-23T02:39:17.467Z,0.50
2023-12-23T02:41:44.346Z,0.60
2023-12-23T02:44:11.231Z,0.70
2023-12-23T02:46:38.769Z,0.60
2023-12-23T02:49:05.890Z,0.60
2023-12-23T02:51:32.899Z,0.50
2023-12-23T02:53:59.794Z,0.40
2023-12-23T02:56:26.702Z,0.70
2023-12-23T02:58:55.630Z,0.70
2023-12-23T03:01:22.716Z,0.50
2023-12-23T03:03:49.646Z,0.70
2023-12-23T03:06:16.769Z,0.50
2023-12-23T03:08:43.661Z,0.70
2023-12-23T03:11:10.741Z,0.60
2023-12-23T03:13:37.689Z,0.70
2023-12-23T03:16:14.442Z,0.60
2023-12-23T03:18:41.335Z,0.50
2023-12-23T03:21:08.226Z,0.50
2023-12-23T03:23:35.085Z,0.50
2023-12-23T03:26:02.379Z,0.40
2023-12-23T03:28:29.284Z,0.50
2023-12-23T03:30:56.266Z,0.50
2023-12-23T03:33:23.374Z,0.40
2023-12-23T03:35:50.291Z,0.50
2023-12-23T03:38:17.208Z,0.40
2023-12-23T03:40:44.147Z,0.70
2023-12-23T03:43:11.028Z,0.50
2023-12-23T03:45:39.717Z,0.30
2023-12-23T03:48:07.882Z,0.50
2023-12-23T03:50:34.796Z,0.50
2023-12-23T03:53:01.769Z,0.60
2023-12-23T03:55:33.703Z,0.40
2023-12-23T03:58:01.157Z,0.60
2023-12-23T04:00:28.734Z,0.50
2023-12-23T04:02:55.865Z,0.60
2023-12-23T04:05:23.373Z,0.60
2023-12-23T04:07:51.697Z,0.50
2023-12-23T04:10:19.043Z,0.40
2023-12-23T04:12:45.924Z,0.60
2023-12-23T04:15:12.887Z,0.50
2023-12-23T04:17:43.916Z,0.40
2023-12-23T04:20:11.501Z,0.40
2023-12-23T04:22:38.538Z,0.40
2023-12-23T04:25:05.929Z,0.50
2023-12-23T04:27:33.211Z,0.40
2023-12-23T04:30:00.083Z,0.50
2023-12-23T04:32:26.970Z,0.30
2023-12-23T04:34:55.586Z,0.60
2023-12-23T04:37:22.560Z,0.50
2023-12-23T04:39:49.390Z,0.30
2023-12-23T04:42:16.236Z,0.50
2023-12-23T04:44:42.979Z,0.50
2023-12-23T04:47:09.969Z,0.30
2023-12-23T04:49:36.822Z,0.50
2023-12-23T04:52:03.788Z,0.30
2023-12-23T04:54:30.601Z,0.50
2023-12-23T04:56:57.539Z,0.40
2023-12-23T04:59:24.499Z,0.40
2023-12-23T05:01:51.825Z,0.40
2023-12-23T05:04:18.804Z,0.50
2023-12-23T05:06:45.609Z,0.40
2023-12-23T05:09:12.904Z,0.30
2023-12-23T05:11:39.777Z,0.40
2023-12-23T05:14:06.685Z,0.50
2023-12-23T05:16:33.947Z,0.60
2023-12-23T05:19:00.974Z,0.60
2023-12-23T05:21:27.895Z,0.60
2023-12-23T05:23:54.728Z,0.60
2023-12-23T05:26:21.876Z,0.50
2023-12-23T05:28:49.412Z,0.50
2023-12-23T05:31:16.397Z,0.50
2023-12-23T05:33:44.281Z,0.40
2023-12-23T05:36:11.394Z,0.50
2023-12-23T05:38:38.281Z,0.60
2023-12-23T05:41:05.435Z,0.60
2023-12-23T05:43:32.296Z,0.50
2023-12-23T05:45:59.140Z,0.40
2023-12-23T05:48:26.132Z,0.50
2023-12-23T05:50:53.186Z,0.40
2023-12-23T05:53:20.192Z,0.40
2023-12-23T05:55:47.688Z,0.70
2023-12-23T05:58:14.619Z,0.40
2023-12-23T06:00:41.475Z,0.40
2023-12-23T06:03:08.930Z,0.40
2023-12-23T06:05:35.982Z,0.50
2023-12-23T06:08:03.745Z,0.70
2023-12-23T06:10:33.298Z,0.40
2023-12-23T06:13:00.392Z,0.60
2023-12-23T06:15:27.121Z,0.60
2023-12-23T06:17:54.360Z,0.70
2023-12-23T06:20:21.659Z,0.60
2023-12-23T06:22:48.691Z,0.50
2023-12-23T06:25:15.638Z,0.60
2023-12-23T06:27:42.416Z,0.40
2023-12-23T06:30:09.333Z,0.70
2023-12-23T06:32:36.199Z,0.50
2023-12-23T06:35:03.788Z,0.70
2023-12-23T06:37:30.620Z,0.60
2023-12-23T06:39:58.678Z,0.60
2023-12-23T06:42:25.399Z,0.60
2023-12-23T06:44:52.375Z,0.60
2023-12-23T06:47:19.356Z,0.70
2023-12-23T06:49:46.512Z,0.70
2023-12-23T06:52:13.556Z,0.60
2023-12-23T06:54:40.465Z,0.70
2023-12-23T06:57:07.192Z,0.50
2023-12-23T06:59:33.961Z,0.70
2023-12-23T07:02:00.849Z,0.50
2023-12-23T07:04:27.609Z,0.80
2023-12-23T07:06:54.609Z,0.70
2023-12-23T07:09:21.400Z,0.80
2023-12-23T07:11:48.193Z,0.80
2023-12-23T07:14:14.948Z,0.80
2023-12-23T07:16:43.110Z,0.60
2023-12-23T07:19:09.857Z,0.80
2023-12-23T07:21:36.595Z,0.70
2023-12-23T07:24:03.448Z,0.70
2023-12-23T07:26:30.328Z,0.40
2023-12-23T07:28:57.283Z,0.70
2023-12-23T07:31:24.073Z,0.70
2023-12-23T07:33:51.164Z,0.70
2023-12-23T07:36:18.097Z,0.60
2023-12-23T07:38:45.077Z,0.50
2023-12-23T07:41:13.006Z,0.40
2023-12-23T07:43:39.819Z,0.70
2023-12-23T07:46:06.585Z,0.60
2023-12-23T07:48:33.364Z,0.60
2023-12-23T07:51:00.230Z,0.50
2023-12-23T07:53:27.151Z,0.60
2023-12-23T07:55:53.990Z,0.70
2023-12-23T07:58:20.789Z,0.60
2023-12-23T08:00:47.723Z,0.80
2023-12-23T08:03:14.632Z,0.70
2023-12-23T08:05:41.518Z,0.60
2023-12-23T08:08:10.976Z,0.60
2023-12-23T08:10:40.925Z,0.70
2023-12-23T08:13:08.184Z,0.60
2023-12-23T08:15:34.983Z,0.50
2023-12-23T08:18:01.953Z,0.50
2023-12-23T08:20:29.427Z,0.90
2023-12-23T08:22:56.202Z,0.80
2023-12-23T08:25:22.950Z,0.80
2023-12-23T08:27:49.748Z,0.70
2023-12-23T08:30:16.598Z,0.80
2023-12-23T08:32:43.420Z,1.00
2023-12-23T08:35:10.299Z,0.90
2023-12-23T08:37:37.088Z,1.00
2023-12-23T08:40:04.093Z,1.00
2023-12-23T08:42:30.825Z,1.00
2023-12-23T08:44:57.585Z,0.80
2023-12-23T08:47:24.354Z,1.00
2023-12-23T08:49:51.194Z,0.80
2023-12-23T08:52:18.033Z,0.90
2023-12-23T08:54:44.762Z,0.90
2023-12-23T08:57:12.261Z,0.80
2023-12-23T08:59:39.134Z,0.90
2023-12-23T09:02:06.412Z,0.90
2023-12-23T09:04:33.364Z,0.90
2023-12-23T09:07:01.186Z,0.80
2023-12-23T09:09:28.184Z,0.80
2023-12-23T09:11:55.237Z,0.90
2023-12-23T09:14:22.625Z,0.80
2023-12-23T09:16:49.564Z,0.70
2023-12-23T09:19:16.555Z,0.70
2023-12-23T09:21:43.454Z,0.90
2023-12-23T09:24:10.201Z,0.80
2023-12-23T09:26:37.166Z,0.80
2023-12-23T09:29:04.022Z,0.80
2023-12-23T09:31:31.542Z,1.10
2023-12-23T09:33:58.579Z,1.00
2023-12-23T09:36:25.444Z,1.00
2023-12-23T09:38:52.221Z,1.00
2023-12-23T09:41:19.355Z,1.10
2023-12-23T09:43:46.234Z,1.00
2023-12-23T09:46:16.193Z,1.10
2023-12-23T09:48:43.203Z,1.20
2023-12-23T09:51:10.013Z,1.00
2023-12-23T09:53:38.710Z,1.20
2023-12-23T09:56:05.668Z,1.20
2023-12-23T09:58:32.545Z,1.20
2023-12-23T10:00:59.422Z,1.20
2023-12-23T10:03:26.226Z,1.20
2023-12-23T10:05:53.717Z,1.30
2023-12-23T10:08:20.741Z,1.20
2023-12-23T10:10:48.923Z,1.40
2023-12-23T10:13:15.827Z,1.10
2023-12-23T10:15:42.752Z,1.30
2023-12-23T10:18:13.169Z,1.30
2023-12-23T10:20:40.032Z,1.20
2023-12-23T10:23:06.986Z,1.10
2023-12-23T10:25:33.809Z,1.40
2023-12-23T10:28:05.966Z,1.10
2023-12-23T10:30:34.524Z,1.20
2023-12-23T10:33:05.932Z,1.10
2023-12-23T10:35:51.546Z,1.10
2023-12-23T10:38:19.327Z,0.90
2023-12-23T10:40:47.955Z,1.10
2023-12-23T10:43:16.678Z,1.10
2023-12-23T10:45:47.563Z,1.10
2023-12-23T10:48:15.847Z,1.20
2023-12-23T10:50:43.225Z,1.10
2023-12-23T10:53:13.708Z,1.00
2023-12-23T10:55:40.976Z,1.20
2023-12-23T10:58:11.743Z,1.00
2023-12-23T11:00:38.657Z,1.30
2023-12-23T11:03:06.531Z,1.20
2023-12-23T11:05:34.734Z,1.20
2023-12-23T11:08:07.526Z,1.30
2023-12-23T11:10:41.044Z,1.40
2023-12-23T11:13:08.570Z,1.30
2023-12-23T11:15:39.392Z,1.30
2023-12-23T11:18:08.970Z,1.30
2023-12-23T11:20:36.841Z,1.30
2023-12-23T11:23:22.315Z,1.30
2023-12-23T11:25:49.099Z,1.10
2023-12-23T11:28:16.237Z,1.20
2023-12-23T11:30:49.561Z,0.90
2023-12-23T11:33:19.866Z,1.10
2023-12-23T11:35:50.809Z,1.00
2023-12-23T11:38:17.578Z,0.90
2023-12-23T11:40:44.807Z,1.20
2023-12-23T11:43:11.628Z,1.00
2023-12-23T11:45:38.444Z,0.80
2023-12-23T11:48:07.645Z,0.90
2023-12-23T11:50:34.492Z,1.10
2023-12-23T11:53:01.431Z,1.20
2023-12-23T11:55:28.294Z,1.10
2023-12-23T11:57:55.462Z,1.10
2023-12-23T12:00:22.439Z,1.20
2023-12-23T12:02:49.419Z,1.00
2023-12-23T12:05:16.445Z,1.00
2023-12-23T12:07:43.433Z,1.00
2023-12-23T12:10:10.314Z,1.00
2023-12-23T12:12:37.124Z,1.00
2023-12-23T12:15:03.976Z,0.90
2023-12-23T12:17:31.025Z,1.00
2023-12-23T12:19:57.914Z,1.10
2023-12-23T12:22:24.674Z,1.10
2023-12-23T12:24:51.583Z,1.10
2023-12-23T12:27:18.455Z,1.00
2023-12-23T12:29:45.208Z,1.10
2023-12-23T12:32:13.318Z,1.00
2023-12-23T12:34:40.143Z,1.00
2023-12-23T12:37:07.048Z,1.00
2023-12-23T12:39:33.833Z,1.10
2023-12-23T12:42:00.829Z,1.10
2023-12-23T12:44:27.704Z,1.30
2023-12-23T12:46:57.577Z,1.50
2023-12-23T12:49:24.794Z,1.30
2023-12-23T12:51:51.968Z,1.20
2023-12-23T12:54:20.122Z,1.30
2023-12-23T12:56:47.959Z,1.20
2023-12-23T12:59:15.248Z,1.10
2023-12-23T13:01:42.260Z,1.20
2023-12-23T13:04:09.092Z,1.00
2023-12-23T13:06:35.899Z,1.00
2023-12-23T13:09:05.139Z,1.00
2023-12-23T13:11:32.427Z,0.90
2023-12-23T13:13:59.527Z,1.10
2023-12-23T13:16:26.395Z,1.10
2023-12-23T13:18:59.620Z,1.00
2023-12-23T13:21:27.990Z,1.10
2023-12-23T13:23:55.149Z,0.90
2023-12-23T13:26:22.164Z,1.20
2023-12-23T13:28:52.132Z,1.20
2023-12-23T13:31:20.238Z,1.20
2023-12-23T13:33:47.255Z,0.90
2023-12-23T13:36:14.296Z,1.00
2023-12-23T13:38:44.087Z,1.10
2023-12-23T13:41:13.410Z,1.20
2023-12-23T13:43:40.200Z,1.10
2023-12-23T13:46:07.983Z,1.00
2023-12-23T13:48:35.823Z,1.10
2023-12-23T13:51:02.997Z,1.10
2023-12-23T13:53:29.824Z,1.10
2023-12-23T13:55:56.653Z,1.20
2023-12-23T13:58:23.413Z,1.20
2023-12-23T14:00:52.276Z,1.00
2023-12-23T14:03:19.460Z,1.30
2023-12-23T14:05:47.353Z,0.90
2023-12-23T14:08:14.714Z,1.20
2023-12-23T14:10:41.593Z,1.30
2023-12-23T14:13:08.328Z,1.30
2023-12-23T14:15:36.495Z,1.20
2023-12-23T14:18:04.617Z,1.20
2023-12-23T14:20:31.377Z,1.20
2023-12-23T14:22:59.282Z,1.20
2023-12-23T14:25:26.085Z,1.40
2023-12-23T14:27:52.793Z,1.20
2023-12-23T14:30:19.576Z,1.30
2023-12-23T14:32:46.412Z,1.30
2023-12-23T14:35:13.344Z,1.30
2023-12-23T14:37:45.454Z,1.50
2023-12-23T14:40:17.479Z,1.20
2023-12-23T14:42:44.274Z,1.20
2023-12-23T14:45:11.137Z,1.40
2023-12-23T14:47:38.054Z,1.30
2023-12-23T14:50:05.471Z,1.30
2023-12-23T14:52:32.354Z,1.40
2023-12-23T14:54:59.129Z,1.40
2023-12-23T14:57:25.982Z,1.30
2023-12-23T14:59:52.705Z,1.40
2023-12-23T15:02:19.918Z,1.30
2023-12-23T15:04:46.801Z,1.40
2023-12-23T15:07:13.772Z,1.40
2023-12-23T15:09:40.544Z,1.40
2023-12-23T15:12:07.463Z,1.40
2023-12-23T15:14:34.241Z,1.30
2023-12-23T15:17:01.460Z,1.40
2023-12-23T15:19:28.483Z,1.40
2023-12-23T15:21:56.817Z,1.50
2023-12-23T15:24:24.892Z,1.40
2023-12-23T15:26:51.755Z,1.40
2023-12-23T15:29:18.640Z,1.50
2023-12-23T15:31:45.539Z,1.30
2023-12-23T15:34:12.396Z,1.40
2023-12-23T15:36:39.217Z,1.40
2023-12-23T15:39:06.601Z,1.20
2023-12-23T15:41:33.710Z,1.20
2023-12-23T15:44:01.172Z,1.30
2023-12-23T15:46:27.989Z,1.30
2023-12-23T15:48:54.785Z,1.30
2023-12-23T15:51:21.532Z,1.30
2023-12-23T15:53:48.359Z,1.30
2023-12-23T15:56:15.255Z,1.20
2023-12-23T15:58:42.100Z,1.20
2023-12-23T16:01:08.955Z,1.30
2023-12-23T16:03:35.741Z,1.10
2023-12-23T16:06:02.852Z,1.20
2023-12-23T16:08:29.855Z,1.20
2023-12-23T16:10:56.643Z,1.10
2023-12-23T16:13:25.259Z,1.20
2023-12-23T16:15:52.040Z,1.20
2023-12-23T16:18:18.947Z,1.10
2023-12-23T16:20:45.776Z,1.00
2023-12-23T16:23:12.935Z,1.10
2023-12-23T16:25:40.629Z,1.00
2023-12-23T16:28:07.372Z,0.90
2023-12-23T16:30:34.216Z,1.00
2023-12-23T16:33:02.623Z,0.90
2023-12-23T16:35:29.592Z,1.00
2023-12-23T16:37:56.394Z,1.40
2023-12-23T16:40:23.249Z,0.90
2023-12-23T16:42:50.492Z,1.10
2023-12-23T16:45:17.424Z,1.10
2023-12-23T16:47:44.457Z,1.10
2023-12-23T16:50:11.627Z,1.20
2023-12-23T16:52:38.632Z,1.10
2023-12-23T16:55:06.842Z,1.40
2023-12-23T16:57:33.647Z,1.30
2023-12-23T17:00:00.578Z,1.60
2023-12-23T17:02:27.501Z,1.30
2023-12-23T17:04:54.467Z,1.40
2023-12-23T17:07:21.566Z,1.30
2023-12-23T17:09:48.335Z,1.20
2023-12-23T17:12:15.119Z,1.20
2023-12-23T17:14:41.833Z,1.50
2023-12-23T17:17:08.746Z,1.30
2023-12-23T17:19:35.497Z,1.40
2023-12-23T17:22:02.414Z,1.30
2023-12-23T17:24:29.159Z,1.20
2023-12-23T17:26:56.161Z,1.40
2023-12-23T17:29:22.901Z,1.30
2023-12-23T17:31:49.683Z,1.20
2023-12-23T17:34:16.501Z,1.20
2023-12-23T17:36:43.806Z,1.30
2023-12-23T17:39:10.729Z,1.20
2023-12-23T17:41:38.364Z,1.20
2023-12-23T17:44:05.516Z,1.20
2023-12-23T17:46:32.351Z,1.30
2023-12-23T17:48:59.237Z,1.30
2023-12-23T17:51:26.072Z,1.20
2023-12-23T17:53:52.824Z,1.40
2023-12-23T17:56:20.172Z,1.40
2023-12-23T17:58:46.914Z,1.10
2023-12-23T18:01:13.972Z,1.10
2023-12-23T18:03:40.840Z,1.10
2023-12-23T18:06:07.700Z,1.20
2023-12-23T18:08:34.674Z,1.30
2023-12-23T18:11:01.620Z,1.10
2023-12-23T18:13:28.502Z,1.10
2023-12-23T18:15:55.529Z,1.20
2023-12-23T18:18:22.483Z,1.20
2023-12-23T18:20:49.562Z,1.20
2023-12-23T18:23:16.458Z,1.20
2023-12-23T18:25:44.794Z,1.40
2023-12-23T18:28:11.754Z,1.10
2023-12-23T18:30:38.588Z,1.10
2023-12-23T18:33:05.640Z,1.10
2023-12-23T18:35:32.557Z,1.20
2023-12-23T18:37:59.394Z,1.20
2023-12-23T18:40:26.168Z,1.30
2023-12-23T18:42:53.175Z,1.30
2023-12-23T18:45:20.139Z,1.40
2023-12-23T18:47:47.835Z,1.30
2023-12-23T18:50:14.802Z,1.20
2023-12-23T18:52:41.623Z,1.30
2023-12-23T18:55:08.518Z,1.20
2023-12-23T18:57:35.250Z,1.30
2023-12-23T19:00:02.117Z,1.10
2023-12-23T19:02:29.077Z,1.20
2023-12-23T19:04:56.935Z,1.30
2023-12-23T19:07:23.837Z,1.10
2023-12-23T19:09:50.638Z,1.20
2023-12-23T19:12:17.375Z,1.30
2023-12-23T19:14:44.187Z,1.30
2023-12-23T19:17:10.981Z,1.50
2023-12-23T19:19:37.819Z,1.40
2023-12-23T19:22:04.622Z,1.30
2023-12-23T19:24:31.392Z,1.30
2023-12-23T19:26:58.295Z,1.50
2023-12-23T19:29:25.097Z,1.40
2023-12-23T19:31:51.900Z,1.30
2023-12-23T19:34:19.635Z,1.20
2023-12-23T19:36:46.674Z,1.20
2023-12-23T19:39:13.930Z,1.30
2023-12-23T19:41:40.695Z,1.20
2023-12-23T19:44:07.503Z,1.20
2023-12-23T19:46:37.294Z,1.00
2023-12-23T19:49:04.488Z,0.90
2023-12-23T19:51:31.576Z,1.10
2023-12-23T19:53:59.856Z,0.80
2023-12-23T19:56:27.128Z,1.00
2023-12-23T19:58:54.115Z,1.20
2023-12-23T20:01:20.946Z,1.00
2023-12-23T20:03:48.146Z,1.10
2023-12-23T20:06:15.273Z,1.00
2023-12-23T20:08:42.165Z,1.10
2023-12-23T20:11:09.179Z,1.10
2023-12-23T20:13:36.252Z,1.20
2023-12-23T20:16:05.754Z,1.00
2023-12-23T20:18:33.019Z,1.00
2023-12-23T20:20:59.909Z,1.10
2023-12-23T20:23:26.707Z,0.90
2023-12-23T20:25:53.587Z,1.30
2023-12-23T20:28:20.848Z,1.30
2023-12-23T20:30:47.678Z,1.10
2023-12-23T20:33:14.810Z,1.20
2023-12-23T20:35:41.830Z,1.20
2023-12-23T20:38:08.673Z,1.20
2023-12-23T20:40:35.470Z,1.30
2023-12-23T20:43:02.266Z,1.30
2023-12-23T20:45:29.011Z,1.30
2023-12-23T20:47:55.918Z,1.10
2023-12-23T20:50:23.121Z,1.10
2023-12-23T20:52:50.073Z,1.10
2023-12-23T20:55:19.156Z,1.00
2023-12-23T20:57:46.378Z,1.10
2023-12-23T21:00:13.469Z,1.10
2023-12-23T21:02:40.268Z,1.30
2023-12-23T21:05:10.537Z,1.10
2023-12-23T21:07:38.210Z,1.10
2023-12-23T21:10:05.201Z,1.30
2023-12-23T21:12:32.002Z,1.20
2023-12-23T21:14:59.142Z,1.00
2023-12-23T21:17:25.942Z,1.20
2023-12-23T21:19:52.860Z,1.00
2023-12-23T21:22:22.271Z,1.00
2023-12-23T21:24:51.361Z,1.00
2023-12-23T21:27:20.916Z,1.00
2023-12-23T21:29:48.484Z,1.00
2023-12-23T21:32:15.430Z,1.20
2023-12-23T21:34:42.310Z,0.90
2023-12-23T21:37:09.403Z,1.00
2023-12-23T21:39:36.500Z,1.10
2023-12-23T21:42:04.205Z,1.10
2023-12-23T21:44:31.052Z,1.20
2023-12-23T21:46:57.858Z,1.10
2023-12-23T21:49:25.140Z,1.20
2023-12-23T21:51:52.163Z,1.10
2023-12-23T21:54:18.919Z,1.00
2023-12-23T21:56:45.714Z,1.00
2023-12-23T21:59:12.625Z,1.10
2023-12-23T22:01:39.393Z,1.00
2023-12-23T22:04:06.318Z,1.10
2023-12-23T22:06:33.105Z,1.20
2023-12-23T22:08:59.877Z,1.10
2023-12-23T22:11:26.813Z,1.20
2023-12-23T22:13:53.632Z,1.00
2023-12-23T22:16:20.371Z,1.00
2023-12-23T22:18:47.244Z,1.10
2023-12-23T22:21:14.413Z,1.00
2023-12-23T22:23:41.500Z,1.20
2023-12-23T22:26:11.500Z,1.00
2023-12-23T22:28:38.325Z,1.30
2023-12-23T22:31:05.238Z,1.10
2023-12-23T22:33:32.137Z,1.10
2023-12-23T22:35:58.994Z,1.20
2023-12-23T22:38:25.753Z,1.00
2023-12-23T22:40:52.554Z,0.90
2023-12-23T22:43:21.763Z,1.10
2023-12-23T22:45:48.739Z,1.10
2023-12-23T22:48:15.691Z,1.00
2023-12-23T22:50:42.986Z,1.10
2023-12-23T22:53:09.975Z,0.90
2023-12-23T22:55:36.837Z,0.90
2023-12-23T22:58:03.634Z,1.00
2023-12-23T23:00:30.779Z,1.00
2023-12-23T23:02:58.477Z,0.90
2023-12-23T23:05:25.592Z,1.10
2023-12-23T23:07:52.536Z,1.00
2023-12-23T23:10:20.060Z,1.10
2023-12-23T23:12:46.957Z,1.00
2023-12-23T23:15:13.752Z,1.20
2023-12-23T23:17:40.937Z,1.20
2023-12-23T23:20:08.101Z,1.00
2023-12-23T23:22:34.907Z,0.90
2023-12-23T23:25:01.703Z,1.10
2023-12-23T23:27:28.448Z,0.90
2023-12-23T23:29:55.194Z,1.00
2023-12-23T23:32:22.071Z,0.90
2023-12-23T23:34:55.707Z,0.80
2023-12-23T23:37:27.773Z,0.90
2023-12-23T23:39:54.556Z,0.80
2023-12-23T23:42:21.266Z,0.80
2023-12-23T23:44:48.171Z,0.90
2023-12-23T23:47:15.020Z,1.10
2023-12-23T23:49:41.834Z,1.00
2023-12-23T23:52:08.589Z,1.10
2023-12-23T23:54:35.357Z,1.10
2023-12-23T23:57:02.138Z,1.10
2023-12-23T23:59:29.028Z,0.90
